Virgil, Ontario

11:37 PM EDT on April 17, 2015 (GMT -0400)
KNYRANSO3 | | Change Station
CLOSE
Current Station
Personal Weather Station
Location: Ransomville, NY
Elevation: 246 ft
Nearby Weather Stations

Elev 246 ft 43.29 °N, 78.93 °W | Updated 7 minutes ago

Partly Cloudy
Partly Cloudy
50.5 °F
Feels Like 50.5 °F
N
0.0
Wind Variable Wind from West

Tomorrow is forecast to be nearly the same temperature as today.

Today
High -- | Low -- °F
--% Chance of Precip.
Yesterday
High -- | Low -- °F
Precip. -- in
6:31 AM 8:01 PM
Waning Crescent, 1% visible
Pressure 29.99 in
Visibility 15.0 miles
Clouds Few 8000 ft
Dew Point 47 °F
Humidity 89%
Rainfall 0.36 in
Snow Depth Not available.
UV 0 out of 12
Pollen Not available.
Air Quality Not available.
Flu Activity Not available.
METAR CYSN 180100Z 24008KT 15SM FEW080 13/09 A2999 RMK AC1 AC TR LAST STFD OBS/NEXT 181100 UTC SLP156

More Conditions Fewer Conditions

Pressure 29.99 in
Visibility 15.0 miles
Clouds Few 8000 ft
Dew Point 47 °F
Humidity 89%
Rainfall 0.36 in
Snow Depth Not available.
UV 0 out of 12
Pollen Not available.
Air Quality Not available.
Flu Activity Not available.
METAR CYSN 180100Z 24008KT 15SM FEW080 13/09 A2999 RMK AC1 AC TR LAST STFD OBS/NEXT 181100 UTC SLP156

More Conditions Fewer Conditions

10-Day Weather Forecast

Almanac

Astronomy

Apr. 17, 2015 Rise Set
Actual Time
Civil Twilight
Nautical Twilight
Astronomical Twilight
Moon
Length of Visible Light
Length of Day
Tomorrow will be .
, % of the Moon is Illuminated

Today's Extremes

Country Highs Country Lows

Community

WunderPhotos

Upload Photos

1,814,316 photos uploaded!

WunderBlogs® & News

Nearby

Air Quality

  Air Quality AQ Index Pollutant
Not available.

Snow Depth

Station Depth Elevation

Earthquake Activity

City Distance Mag. Time & Date
Minimum magnitude displayed is 2.5.

Coastal Water Temperatures

Place Temperature

Stations

Nearby Weather Stations

Station Location Temp. Windchill Dew Point Humidity Wind Precip. Elev Updated Type